Time;durP1;ratioP1;P1;durP2;ratioP2;P2;SDS_P1;SDS_P2;PMS_P1;PMS_P2;Temp;Humidity;BMP_temperature;BMP_pressure;BME280_temperature;BME280_humidity;BME280_pressure;Samples;Min_cycle;Max_cycle;Signal;HPM_P1;HPM_P2
2022/01/13 00:01:44;;;;;;;;;;;2.60;99.90;;;;;;5028437;28;19913;-75
2022/01/13 00:04:11;;;;;;;;;;;2.50;99.90;;;;;;5028760;28;19909;-76
2022/01/13 00:06:36;;;;;;;;;;;2.50;99.90;;;;;;5028607;28;19940;-76
2022/01/13 00:09:03;;;;;;;;;;;2.50;99.90;;;;;;5028505;28;19909;-76
2022/01/13 00:11:28;;;;;;;;;;;2.60;99.90;;;;;;5028490;28;19910;-76
2022/01/13 00:16:42;;;;;;;;;;;2.50;99.90;;;;;;5010508;28;19924;-76
2022/01/13 00:21:47;;;;;;;;;;;2.60;99.90;;;;;;5010538;28;19913;-76
2022/01/13 00:24:13;;;;;;;;;;;2.50;99.90;;;;;;4994420;28;19909;-76
2022/01/13 00:26:40;;;;;;;;;;;2.50;99.90;;;;;;5028369;28;19909;-76
2022/01/13 00:29:07;;;;;;;;;;;2.50;99.90;;;;;;4994500;28;19952;-76
2022/01/13 00:31:35;;;;;;;;;;;2.50;99.90;;;;;;5009911;28;19920;-76
2022/01/13 00:34:02;;;;;;;;;;;2.40;99.90;;;;;;5027753;28;19915;-76
2022/01/13 00:36:29;;;;;;;;;;;2.50;99.90;;;;;;5027962;28;19967;-76
2022/01/13 00:38:55;;;;;;;;;;;2.50;99.90;;;;;;5010115;28;19973;-75
2022/01/13 00:41:23;;;;;;;;;;;2.40;99.90;;;;;;5010298;28;19909;-76
2022/01/13 00:43:48;;;;;;;;;;;2.40;99.90;;;;;;5027723;28;19932;-76
2022/01/13 00:46:21;;;;;;;;;;;2.40;99.90;;;;;;5027623;28;19937;-76
2022/01/13 00:48:47;;;;;;;;;;;2.40;99.90;;;;;;5027578;28;19959;-76
2022/01/13 00:51:12;;;;;;;;;;;2.30;99.90;;;;;;5027662;28;19909;-76
2022/01/13 00:53:38;;;;;;;;;;;2.30;99.90;;;;;;5027489;28;20350;-75
2022/01/13 00:56:03;;;;;;;;;;;2.30;99.90;;;;;;5027577;28;19922;-77
2022/01/13 00:58:30;;;;;;;;;;;2.30;99.90;;;;;;5027334;28;19910;-80
2022/01/13 01:00:56;;;;;;;;;;;2.30;99.90;;;;;;5027281;28;19909;-76
2022/01/13 01:03:22;;;;;;;;;;;2.30;99.90;;;;;;5009591;28;19969;-76
2022/01/13 01:05:48;;;;;;;;;;;2.20;99.90;;;;;;5027500;28;19916;-76
2022/01/13 01:08:13;;;;;;;;;;;2.20;99.90;;;;;;5027182;28;20362;-76
2022/01/13 01:10:40;;;;;;;;;;;2.20;99.90;;;;;;5027219;28;19917;-76
2022/01/13 01:13:15;;;;;;;;;;;2.20;99.90;;;;;;5027187;28;19916;-76
2022/01/13 01:15:45;;;;;;;;;;;2.30;99.90;;;;;;5027192;28;19964;-76
2022/01/13 01:18:59;;;;;;;;;;;2.30;99.90;;;;;;5026941;28;19915;-75
2022/01/13 01:22:02;;;;;;;;;;;2.30;99.90;;;;;;5001503;28;19957;-75
2022/01/13 01:26:29;;;;;;;;;;;2.30;99.90;;;;;;5009462;28;19909;-76
2022/01/13 01:29:06;;;;;;;;;;;2.30;99.90;;;;;;5026845;28;19909;-75
2022/01/13 01:31:34;;;;;;;;;;;2.30;99.90;;;;;;5026259;28;19913;-76
2022/01/13 01:36:38;;;;;;;;;;;2.40;99.90;;;;;;5028238;28;19918;-76
2022/01/13 01:39:06;;;;;;;;;;;2.30;99.90;;;;;;5028236;28;19984;-76
2022/01/13 01:41:34;;;;;;;;;;;2.30;99.90;;;;;;5027462;28;19960;-76
2022/01/13 01:44:04;;;;;;;;;;;2.30;99.90;;;;;;5026662;28;19916;-76
2022/01/13 01:46:33;;;;;;;;;;;2.20;99.90;;;;;;5026869;28;19909;-76
2022/01/13 01:49:03;;;;;;;;;;;2.30;99.90;;;;;;5008896;28;19910;-76
2022/01/13 01:51:29;;;;;;;;;;;2.30;99.90;;;;;;5026601;28;19945;-76
2022/01/13 01:53:54;;;;;;;;;;;2.30;99.90;;;;;;5026602;28;19918;-76
2022/01/13 01:56:20;;;;;;;;;;;2.20;99.90;;;;;;4992792;28;19917;-76
2022/01/13 01:58:46;;;;;;;;;;;2.30;99.90;;;;;;5008848;28;19909;-75
2022/01/13 02:01:13;;;;;;;;;;;2.30;99.90;;;;;;4992441;28;19916;-76
2022/01/13 02:03:39;;;;;;;;;;;2.20;99.90;;;;;;5026247;28;19917;-76
2022/01/13 02:06:04;;;;;;;;;;;2.30;99.90;;;;;;5026511;28;19994;-76
2022/01/13 02:08:30;;;;;;;;;;;2.30;99.90;;;;;;5026305;28;19913;-75
2022/01/13 02:10:55;;;;;;;;;;;2.30;99.90;;;;;;5026336;28;19910;-76
2022/01/13 02:13:24;;;;;;;;;;;2.30;99.90;;;;;;5026362;28;19909;-76
2022/01/13 02:16:01;;;;;;;;;;;2.30;99.90;;;;;;5026163;28;19917;-76
2022/01/13 02:18:31;;;;;;;;;;;2.30;99.90;;;;;;5008577;28;20157;-75
2022/01/13 02:20:57;;;;;;;;;;;2.30;99.90;;;;;;5026114;28;20380;-76
2022/01/13 02:23:32;;;;;;;;;;;2.30;99.90;;;;;;5008637;28;19909;-76
2022/01/13 02:25:57;;;;;;;;;;;2.30;99.90;;;;;;5026276;28;19913;-76
2022/01/13 02:28:23;;;;;;;;;;;2.30;99.90;;;;;;5008392;28;19909;-76
2022/01/13 02:30:49;;;;;;;;;;;2.30;99.90;;;;;;5016758;23;19894;-76
2022/01/13 02:33:14;;;;;;;;;;;2.30;99.90;;;;;;5044735;28;20018;-76
2022/01/13 02:35:40;;;;;;;;;;;2.30;99.90;;;;;;5028438;28;19967;-75
2022/01/13 02:38:10;;;;;;;;;;;2.30;99.90;;;;;;5028579;28;19913;-76
2022/01/13 02:40:36;;;;;;;;;;;2.30;99.90;;;;;;5046181;28;19924;-76
2022/01/13 02:43:02;;;;;;;;;;;2.30;99.90;;;;;;5046064;28;19909;-75
2022/01/13 02:45:33;;;;;;;;;;;2.30;99.90;;;;;;5049605;28;19916;-75
2022/01/13 02:48:13;;;;;;;;;;;2.30;99.90;;;;;;5050410;28;20008;-76
2022/01/13 02:50:40;;;;;;;;;;;2.30;99.90;;;;;;5050281;28;19963;-75
2022/01/13 02:53:08;;;;;;;;;;;2.30;99.90;;;;;;5050286;28;19909;-76
2022/01/13 02:55:34;;;;;;;;;;;2.30;99.90;;;;;;5032576;28;19913;-75
2022/01/13 02:58:00;;;;;;;;;;;2.20;99.90;;;;;;5048904;28;19920;-75
2022/01/13 03:00:26;;;;;;;;;;;2.30;99.90;;;;;;5049866;28;20012;-76
2022/01/13 03:02:52;;;;;;;;;;;2.20;99.90;;;;;;5048725;28;19909;-76
2022/01/13 03:05:17;;;;;;;;;;;2.20;99.90;;;;;;5049588;28;19953;-75
2022/01/13 03:07:43;;;;;;;;;;;2.20;99.90;;;;;;5049583;28;19905;-76
2022/01/13 03:10:09;;;;;;;;;;;2.20;99.90;;;;;;5049510;28;19980;-76
2022/01/13 03:12:38;;;;;;;;;;;2.30;99.90;;;;;;5048181;28;19909;-75
2022/01/13 03:15:04;;;;;;;;;;;2.20;99.90;;;;;;5049548;28;19909;-75
2022/01/13 03:17:29;;;;;;;;;;;2.20;99.90;;;;;;5031590;28;19944;-76
2022/01/13 03:19:55;;;;;;;;;;;2.20;99.90;;;;;;5049207;28;20425;-76
2022/01/13 03:22:20;;;;;;;;;;;2.30;99.90;;;;;;5031566;28;19945;-78
2022/01/13 03:24:46;;;;;;;;;;;2.30;99.90;;;;;;5064865;28;19956;-76
2022/01/13 03:27:19;;;;;;;;;;;2.20;99.90;;;;;;5049106;28;19915;-75
2022/01/13 03:29:44;;;;;;;;;;;2.20;99.90;;;;;;5049130;28;19915;-76
2022/01/13 03:32:10;;;;;;;;;;;2.30;99.90;;;;;;5048679;28;20007;-76
2022/01/13 03:34:35;;;;;;;;;;;2.20;99.90;;;;;;5048865;28;19909;-76
2022/01/13 03:37:01;;;;;;;;;;;2.30;99.90;;;;;;5048714;28;19923;-76
2022/01/13 03:39:28;;;;;;;;;;;2.20;99.90;;;;;;5048980;28;19909;-76
2022/01/13 03:41:54;;;;;;;;;;;2.20;99.90;;;;;;5032235;28;19916;-76
2022/01/13 03:44:28;;;;;;;;;;;2.10;99.90;;;;;;5048914;28;19909;-75
2022/01/13 03:46:54;;;;;;;;;;;2.10;99.90;;;;;;5047510;28;19909;-75
2022/01/13 03:49:20;;;;;;;;;;;2.10;99.90;;;;;;5048772;28;19909;-75
2022/01/13 03:52:09;;;;;;;;;;;2.20;99.90;;;;;;5048488;28;19909;-76
2022/01/13 03:54:35;;;;;;;;;;;2.10;99.90;;;;;;5030353;28;19915;-76
2022/01/13 03:57:19;;;;;;;;;;;2.20;99.90;;;;;;5048413;28;19923;-76
2022/01/13 03:59:47;;;;;;;;;;;2.20;99.90;;;;;;5048636;28;19959;-76
2022/01/13 04:02:14;;;;;;;;;;;2.20;99.90;;;;;;5030683;28;19909;-75
2022/01/13 04:04:41;;;;;;;;;;;2.10;99.90;;;;;;5030809;28;19931;-75
2022/01/13 04:07:14;;;;;;;;;;;2.10;99.90;;;;;;5047010;28;19909;-76
2022/01/13 04:09:39;;;;;;;;;;;2.10;99.90;;;;;;5030431;28;19915;-76
2022/01/13 04:12:07;;;;;;;;;;;2.00;99.90;;;;;;5030256;28;19976;-75
2022/01/13 04:14:43;;;;;;;;;;;2.10;99.90;;;;;;5063793;28;19909;-75
2022/01/13 04:17:10;;;;;;;;;;;2.10;99.90;;;;;;5030295;28;19917;-76
2022/01/13 04:19:36;;;;;;;;;;;2.00;99.90;;;;;;5048290;28;19909;-76
2022/01/13 04:22:02;;;;;;;;;;;2.00;99.90;;;;;;5047920;28;19988;-76
2022/01/13 04:24:28;;;;;;;;;;;2.00;99.90;;;;;;5047076;28;19909;-75
2022/01/13 04:26:55;;;;;;;;;;;2.00;99.90;;;;;;5047943;28;19940;-75
2022/01/13 04:29:30;;;;;;;;;;;2.00;99.90;;;;;;5047855;28;19930;-75
2022/01/13 04:31:55;;;;;;;;;;;2.00;99.90;;;;;;5047575;28;19952;-76
2022/01/13 04:34:21;;;;;;;;;;;2.00;99.90;;;;;;5048126;28;19909;-75
2022/01/13 04:36:47;;;;;;;;;;;2.00;99.90;;;;;;5047949;28;19917;-76
2022/01/13 04:39:14;;;;;;;;;;;2.10;99.90;;;;;;5048019;28;19915;-76
2022/01/13 04:41:41;;;;;;;;;;;2.10;99.90;;;;;;5046516;28;19917;-76
2022/01/13 04:44:07;;;;;;;;;;;2.00;99.90;;;;;;5047651;28;19986;-76
2022/01/13 04:46:34;;;;;;;;;;;2.00;99.90;;;;;;5047760;28;19909;-76
2022/01/13 04:49:02;;;;;;;;;;;2.00;99.90;;;;;;5047754;28;20364;-77
2022/01/13 04:51:28;;;;;;;;;;;2.00;99.90;;;;;;5047548;28;19909;-76
2022/01/13 04:53:53;;;;;;;;;;;2.00;99.90;;;;;;5046415;28;19909;-76
2022/01/13 04:56:31;;;;;;;;;;;2.10;99.90;;;;;;5046180;28;19913;-75
2022/01/13 04:58:57;;;;;;;;;;;2.00;99.90;;;;;;5047671;28;19909;-76
2022/01/13 05:01:23;;;;;;;;;;;2.10;99.90;;;;;;5046152;28;19908;-76
2022/01/13 05:03:49;;;;;;;;;;;2.10;99.90;;;;;;5046264;28;19909;-76
2022/01/13 05:06:17;;;;;;;;;;;2.10;99.90;;;;;;5045685;28;20066;-75
2022/01/13 05:08:43;;;;;;;;;;;2.10;99.90;;;;;;5045677;28;19948;-76
2022/01/13 05:11:09;;;;;;;;;;;2.10;99.90;;;;;;5044039;28;19916;-75
2022/01/13 05:13:35;;;;;;;;;;;2.10;99.90;;;;;;5047060;28;19940;-78
2022/01/13 05:16:00;;;;;;;;;;;2.10;99.90;;;;;;5047446;28;20360;-76
2022/01/13 05:18:43;;;;;;;;;;;2.10;99.90;;;;;;5047014;28;19909;-76
2022/01/13 05:21:20;;;;;;;;;;;2.00;99.90;;;;;;5046981;28;19915;-76
2022/01/13 05:23:45;;;;;;;;;;;2.00;99.90;;;;;;5046751;28;19952;-76
2022/01/13 05:26:12;;;;;;;;;;;2.10;99.90;;;;;;5046675;28;19909;-79
2022/01/13 05:28:38;;;;;;;;;;;2.00;99.90;;;;;;5029192;28;19989;-77
2022/01/13 05:31:04;;;;;;;;;;;2.00;99.90;;;;;;5046309;28;19909;-76
2022/01/13 05:33:29;;;;;;;;;;;2.00;99.90;;;;;;5046583;28;19935;-76
2022/01/13 05:35:55;;;;;;;;;;;2.00;99.90;;;;;;5046225;28;19928;-77
2022/01/13 05:38:20;;;;;;;;;;;2.00;99.90;;;;;;5046577;28;19981;-76
2022/01/13 05:40:46;;;;;;;;;;;2.00;99.90;;;;;;5045391;28;19909;-76
2022/01/13 05:43:11;;;;;;;;;;;2.00;99.90;;;;;;5040740;28;19916;-76
2022/01/13 05:45:38;;;;;;;;;;;2.00;99.90;;;;;;5045330;28;19913;-76
2022/01/13 05:48:04;;;;;;;;;;;2.00;99.90;;;;;;5046415;28;19909;-76
2022/01/13 05:50:30;;;;;;;;;;;1.90;99.90;;;;;;5028724;28;19915;-76
2022/01/13 05:52:55;;;;;;;;;;;2.00;99.90;;;;;;5046270;28;19917;-76
2022/01/13 05:55:21;;;;;;;;;;;2.00;99.90;;;;;;5044981;28;19984;-76
2022/01/13 05:57:47;;;;;;;;;;;2.00;99.90;;;;;;5045083;28;19920;-76
2022/01/13 06:00:14;;;;;;;;;;;2.00;99.90;;;;;;5044829;28;19916;-76
2022/01/13 06:02:39;;;;;;;;;;;2.00;99.90;;;;;;5028001;28;19919;-75
2022/01/13 06:05:06;;;;;;;;;;;1.90;99.90;;;;;;5012268;28;19941;-76
2022/01/13 06:07:31;;;;;;;;;;;2.00;99.90;;;;;;5011821;28;20447;-76
2022/01/13 06:09:57;;;;;;;;;;;2.00;99.90;;;;;;5028275;28;19909;-77
2022/01/13 06:12:32;;;;;;;;;;;2.00;99.90;;;;;;5028312;28;19909;-76
2022/01/13 06:15:02;;;;;;;;;;;2.00;99.90;;;;;;5046155;28;19909;-79
2022/01/13 06:17:27;;;;;;;;;;;2.00;99.90;;;;;;5045845;28;20356;-77
2022/01/13 06:19:55;;;;;;;;;;;2.00;99.90;;;;;;5046021;28;19941;-76
2022/01/13 06:22:21;;;;;;;;;;;2.00;99.90;;;;;;5028110;28;19916;-79
2022/01/13 06:24:47;;;;;;;;;;;2.00;99.90;;;;;;5029778;28;19915;-76
2022/01/13 06:27:12;;;;;;;;;;;2.00;99.90;;;;;;5022852;28;20428;-76
2022/01/13 06:29:38;;;;;;;;;;;2.00;99.90;;;;;;5032048;28;19972;-80
2022/01/13 06:32:03;;;;;;;;;;;2.00;99.90;;;;;;5045357;28;19917;-83
2022/01/13 06:34:29;;;;;;;;;;;2.00;99.90;;;;;;4990720;28;19925;-83
2022/01/13 06:36:54;;;;;;;;;;;2.00;99.90;;;;;;5025426;28;19921;-76
2022/01/13 06:39:20;;;;;;;;;;;2.00;99.90;;;;;;5044554;28;19948;-75
2022/01/13 06:41:46;;;;;;;;;;;2.00;99.90;;;;;;5044779;28;19939;-76
2022/01/13 06:44:12;;;;;;;;;;;2.00;99.90;;;;;;5045438;28;19935;-79
2022/01/13 06:46:38;;;;;;;;;;;2.00;99.90;;;;;;5028346;28;19909;-78
2022/01/13 06:49:04;;;;;;;;;;;1.90;99.90;;;;;;5045932;28;20439;-83
2022/01/13 06:51:30;;;;;;;;;;;1.90;99.90;;;;;;5028136;28;19916;-81
2022/01/13 06:53:56;;;;;;;;;;;2.00;99.90;;;;;;5045738;28;19909;-78
2022/01/13 06:56:24;;;;;;;;;;;2.00;99.90;;;;;;5045621;28;19913;-76
2022/01/13 06:58:50;;;;;;;;;;;1.90;99.90;;;;;;5045752;28;19909;-83
2022/01/13 07:01:16;;;;;;;;;;;1.90;99.90;;;;;;5045683;28;19991;-79
2022/01/13 07:03:41;;;;;;;;;;;1.90;99.90;;;;;;5045914;28;20278;-79
2022/01/13 07:06:07;;;;;;;;;;;1.90;99.90;;;;;;5011721;28;19909;-81
2022/01/13 07:08:33;;;;;;;;;;;2.00;99.90;;;;;;5045820;28;19909;-77
2022/01/13 07:11:02;;;;;;;;;;;1.90;99.90;;;;;;5045676;28;19909;-76
2022/01/13 07:13:28;;;;;;;;;;;1.90;99.90;;;;;;5028087;28;19909;-77
2022/01/13 07:15:53;;;;;;;;;;;1.90;99.90;;;;;;5045402;28;19917;-76
2022/01/13 07:18:19;;;;;;;;;;;2.00;99.90;;;;;;5045607;28;19916;-77
2022/01/13 07:20:45;;;;;;;;;;;1.90;99.90;;;;;;5045676;28;19920;-78
2022/01/13 07:23:11;;;;;;;;;;;1.90;99.90;;;;;;5045852;28;19909;-80
2022/01/13 07:25:37;;;;;;;;;;;2.00;99.90;;;;;;5027686;28;19913;-77
2022/01/13 07:28:03;;;;;;;;;;;1.90;99.90;;;;;;5025181;28;19909;-76
2022/01/13 07:30:29;;;;;;;;;;;1.90;99.90;;;;;;5027680;28;19916;-76
2022/01/13 07:32:54;;;;;;;;;;;2.00;99.90;;;;;;5012042;28;19925;-76
2022/01/13 07:35:20;;;;;;;;;;;2.00;99.90;;;;;;5012236;28;19952;-75
2022/01/13 07:37:45;;;;;;;;;;;2.00;99.90;;;;;;5027890;28;19997;-76
2022/01/13 07:40:13;;;;;;;;;;;1.90;99.90;;;;;;5011422;28;20008;-76
2022/01/13 07:42:42;;;;;;;;;;;2.00;99.90;;;;;;5046285;28;19909;-76
2022/01/13 07:45:08;;;;;;;;;;;2.00;99.90;;;;;;5048979;28;19976;-76
2022/01/13 07:47:33;;;;;;;;;;;1.90;99.90;;;;;;5031083;28;19919;-76
2022/01/13 07:49:59;;;;;;;;;;;1.90;99.90;;;;;;5048743;28;19913;-76
2022/01/13 07:52:26;;;;;;;;;;;2.00;99.90;;;;;;5047451;28;20375;-76
2022/01/13 07:54:52;;;;;;;;;;;2.00;99.90;;;;;;5047574;28;19948;-76
2022/01/13 07:57:17;;;;;;;;;;;2.00;99.90;;;;;;5048365;28;19917;-76
2022/01/13 07:59:43;;;;;;;;;;;2.00;99.90;;;;;;5048754;28;19909;-75
2022/01/13 08:02:08;;;;;;;;;;;1.90;99.90;;;;;;5048501;28;19908;-76
2022/01/13 08:04:34;;;;;;;;;;;1.90;99.90;;;;;;5048822;28;19971;-76
2022/01/13 08:06:59;;;;;;;;;;;1.90;99.90;;;;;;5048471;28;19909;-76
2022/01/13 08:09:25;;;;;;;;;;;2.00;99.90;;;;;;5047388;28;19982;-76
2022/01/13 08:11:51;;;;;;;;;;;2.00;99.90;;;;;;5048224;28;19909;-76
2022/01/13 08:14:16;;;;;;;;;;;2.10;99.90;;;;;;5047992;28;19944;-75
2022/01/13 08:16:44;;;;;;;;;;;2.00;99.90;;;;;;5046168;28;19917;-76
2022/01/13 08:21:54;;;;;;;;;;;2.00;99.90;;;;;;5047658;28;19916;-75
2022/01/13 08:24:20;;;;;;;;;;;2.00;99.90;;;;;;5046179;28;19909;-76
2022/01/13 08:26:46;;;;;;;;;;;2.00;99.90;;;;;;5047248;28;19905;-76
2022/01/13 08:29:11;;;;;;;;;;;2.00;99.90;;;;;;5031883;28;19994;-76
2022/01/13 08:31:37;;;;;;;;;;;2.00;99.90;;;;;;5026051;28;19917;-76
2022/01/13 08:34:02;;;;;;;;;;;2.00;99.90;;;;;;5027770;28;20410;-75
2022/01/13 08:36:28;;;;;;;;;;;2.00;99.90;;;;;;5027323;28;19929;-75
2022/01/13 08:38:53;;;;;;;;;;;2.00;99.90;;;;;;5009846;28;19910;-75
2022/01/13 08:41:20;;;;;;;;;;;2.00;99.90;;;;;;5027112;28;19917;-75
2022/01/13 08:43:45;;;;;;;;;;;2.10;99.90;;;;;;5027371;28;19914;-75
2022/01/13 08:46:11;;;;;;;;;;;2.10;99.90;;;;;;5009528;28;19910;-75
2022/01/13 08:48:36;;;;;;;;;;;2.10;99.90;;;;;;5027329;28;20247;-75
2022/01/13 08:51:03;;;;;;;;;;;2.10;99.90;;;;;;5027143;28;19909;-75
2022/01/13 08:53:28;;;;;;;;;;;2.20;99.90;;;;;;5025823;28;19909;-75
2022/01/13 08:55:55;;;;;;;;;;;2.20;99.90;;;;;;5027021;28;19995;-75
2022/01/13 08:58:22;;;;;;;;;;;2.20;99.90;;;;;;5009366;28;19914;-76
2022/01/13 09:00:49;;;;;;;;;;;2.20;99.90;;;;;;5027089;28;20010;-80
2022/01/13 09:03:15;;;;;;;;;;;2.30;99.90;;;;;;5026966;28;19910;-77
2022/01/13 09:05:41;;;;;;;;;;;2.30;99.90;;;;;;5027061;28;19920;-77
2022/01/13 09:08:07;;;;;;;;;;;2.30;99.90;;;;;;5025882;28;19909;-79
2022/01/13 09:10:33;;;;;;;;;;;2.30;99.90;;;;;;5027070;28;19917;-79
2022/01/13 09:12:59;;;;;;;;;;;2.30;99.90;;;;;;5026572;28;19909;-77
2022/01/13 09:15:35;;;;;;;;;;;2.30;99.90;;;;;;5027273;28;19913;-75
2022/01/13 09:18:07;;;;;;;;;;;2.30;99.90;;;;;;5026631;28;19917;-75
2022/01/13 09:20:33;;;;;;;;;;;2.40;99.90;;;;;;5009318;28;20000;-75
2022/01/13 09:22:58;;;;;;;;;;;2.40;99.90;;;;;;5008973;28;19909;-76
2022/01/13 09:25:25;;;;;;;;;;;2.30;99.90;;;;;;5008996;28;19919;-75
2022/01/13 09:27:50;;;;;;;;;;;2.30;99.90;;;;;;5028394;28;19965;-75
2022/01/13 09:30:16;;;;;;;;;;;2.30;99.90;;;;;;5028619;28;19908;-75
2022/01/13 09:32:42;;;;;;;;;;;2.40;99.90;;;;;;5046099;28;19943;-75
2022/01/13 09:35:08;;;;;;;;;;;2.40;99.90;;;;;;5028634;28;19909;-75
2022/01/13 09:37:35;;;;;;;;;;;2.30;99.90;;;;;;5028495;28;19931;-75
2022/01/13 09:40:01;;;;;;;;;;;2.30;99.90;;;;;;5028523;28;19956;-76
2022/01/13 09:42:28;;;;;;;;;;;2.40;99.90;;;;;;5045961;28;19920;-75
2022/01/13 09:44:54;;;;;;;;;;;2.40;99.90;;;;;;5028165;28;20046;-75
2022/01/13 09:47:19;;;;;;;;;;;2.40;99.90;;;;;;5045862;28;19909;-75
2022/01/13 09:49:45;;;;;;;;;;;2.40;99.90;;;;;;5045947;28;19920;-75
2022/01/13 09:52:10;;;;;;;;;;;2.50;99.90;;;;;;5045627;28;19909;-75
2022/01/13 09:54:36;;;;;;;;;;;2.50;99.90;;;;;;5045585;28;20407;-75
2022/01/13 09:57:02;;;;;;;;;;;2.50;99.90;;;;;;5045559;28;19917;-76
2022/01/13 09:59:27;;;;;;;;;;;2.60;99.90;;;;;;5027979;28;19925;-76
2022/01/13 10:01:53;;;;;;;;;;;2.50;99.90;;;;;;5044019;28;19909;-75
2022/01/13 10:04:18;;;;;;;;;;;2.50;99.90;;;;;;5044378;28;19909;-75
2022/01/13 10:06:47;;;;;;;;;;;2.50;99.90;;;;;;5027687;28;20361;-75
2022/01/13 10:09:13;;;;;;;;;;;2.40;99.90;;;;;;5044196;28;19909;-75
2022/01/13 10:11:52;;;;;;;;;;;2.50;99.90;;;;;;5027664;28;19909;-75
2022/01/13 10:16:52;;;;;;;;;;;2.70;99.90;;;;;;5045793;28;19940;-75
2022/01/13 10:19:36;;;;;;;;;;;2.60;99.90;;;;;;5027756;28;19912;-75
2022/01/13 10:22:03;;;;;;;;;;;2.60;99.90;;;;;;5045454;28;19916;-75
2022/01/13 10:24:30;;;;;;;;;;;2.60;99.90;;;;;;5027590;28;19909;-75
2022/01/13 10:27:10;;;;;;;;;;;2.50;99.90;;;;;;5044042;28;20018;-75
2022/01/13 10:29:52;;;;;;;;;;;2.60;99.90;;;;;;5043797;28;19998;-75
2022/01/13 10:32:23;;;;;;;;;;;2.70;99.90;;;;;;5011003;28;19992;-75
2022/01/13 10:34:50;;;;;;;;;;;2.60;99.90;;;;;;5045378;28;19909;-75
2022/01/13 10:37:17;;;;;;;;;;;2.70;99.90;;;;;;5027345;28;19931;-75
2022/01/13 10:39:51;;;;;;;;;;;2.70;99.90;;;;;;5027597;28;19920;-75
2022/01/13 10:45:08;;;;;;;;;;;2.70;99.90;;;;;;5043787;28;20017;-75
2022/01/13 10:47:34;;;;;;;;;;;2.60;99.90;;;;;;5027417;28;19948;-75
2022/01/13 10:50:01;;;;;;;;;;;2.70;99.90;;;;;;5027243;28;19916;-76
2022/01/13 10:52:27;;;;;;;;;;;2.80;99.90;;;;;;5027450;28;19909;-75
2022/01/13 10:54:54;;;;;;;;;;;2.80;99.90;;;;;;5043893;28;20365;-75
2022/01/13 10:57:22;;;;;;;;;;;2.80;99.90;;;;;;5043662;28;19916;-75
2022/01/13 10:59:48;;;;;;;;;;;2.80;99.90;;;;;;5043425;28;19939;-76
2022/01/13 11:02:13;;;;;;;;;;;2.90;99.90;;;;;;5027453;28;19960;-75
2022/01/13 11:04:39;;;;;;;;;;;2.80;99.90;;;;;;5043967;28;19972;-75
2022/01/13 11:07:31;;;;;;;;;;;2.70;99.90;;;;;;5031007;28;19909;-75
2022/01/13 11:09:58;;;;;;;;;;;2.70;99.90;;;;;;5043037;28;20321;-74
2022/01/13 11:12:26;;;;;;;;;;;2.90;99.90;;;;;;5030962;28;19909;-75
2022/01/13 11:14:59;;;;;;;;;;;2.90;99.90;;;;;;5030759;28;20329;-75
2022/01/13 11:17:25;;;;;;;;;;;2.90;99.90;;;;;;5047528;28;19917;-75
2022/01/13 11:19:51;;;;;;;;;;;2.90;99.90;;;;;;5049053;28;19909;-75
2022/01/13 11:22:17;;;;;;;;;;;2.90;99.90;;;;;;5049037;28;20011;-75
2022/01/13 11:24:43;;;;;;;;;;;2.80;99.90;;;;;;5048693;28;19956;-76
2022/01/13 11:27:10;;;;;;;;;;;2.80;99.90;;;;;;5030759;28;19980;-75
2022/01/13 11:29:35;;;;;;;;;;;2.90;99.90;;;;;;5048444;28;19974;-75
2022/01/13 11:32:01;;;;;;;;;;;2.90;99.90;;;;;;5034545;28;19948;-75
2022/01/13 11:34:27;;;;;;;;;;;2.80;99.90;;;;;;5048584;28;19912;-75
2022/01/13 11:36:53;;;;;;;;;;;2.90;99.90;;;;;;5048247;28;19917;-75
2022/01/13 11:39:34;;;;;;;;;;;2.90;99.90;;;;;;5048440;28;20006;-75
2022/01/13 11:42:02;;;;;;;;;;;2.90;99.90;;;;;;5049709;28;20227;-75
2022/01/13 11:44:28;;;;;;;;;;;2.90;99.90;;;;;;5048342;28;19909;-75
2022/01/13 11:46:54;;;;;;;;;;;3.00;99.90;;;;;;5048065;28;19916;-75
2022/01/13 11:49:24;;;;;;;;;;;2.90;99.90;;;;;;5048119;28;20284;-76
2022/01/13 11:51:58;;;;;;;;;;;3.00;99.90;;;;;;5048225;28;19909;-75
2022/01/13 11:54:25;;;;;;;;;;;2.90;99.90;;;;;;5048181;28;19909;-75
2022/01/13 11:57:09;;;;;;;;;;;3.00;99.90;;;;;;5061023;28;19916;-76
2022/01/13 11:59:34;;;;;;;;;;;3.00;99.90;;;;;;5028723;28;19963;-75
2022/01/13 12:02:19;;;;;;;;;;;3.10;99.90;;;;;;5029764;28;19909;-77
2022/01/13 12:04:59;;;;;;;;;;;3.00;99.90;;;;;;5047982;28;19909;-78
2022/01/13 12:07:45;;;;;;;;;;;3.10;99.90;;;;;;5047605;28;20345;-75
2022/01/13 12:10:31;;;;;;;;;;;3.10;99.90;;;;;;5029857;28;19909;-74
2022/01/13 12:12:57;;;;;;;;;;;2.90;99.90;;;;;;5036854;28;19909;-76
2022/01/13 12:15:26;;;;;;;;;;;3.00;99.90;;;;;;5047711;28;19975;-75
2022/01/13 12:18:05;;;;;;;;;;;3.00;99.90;;;;;;5047352;28;19920;-75
2022/01/13 12:20:46;;;;;;;;;;;3.00;99.90;;;;;;5047617;28;20000;-77
2022/01/13 12:23:30;;;;;;;;;;;3.00;99.90;;;;;;5047541;28;19909;-75
2022/01/13 12:25:55;;;;;;;;;;;3.00;99.90;;;;;;5047338;28;19913;-75
2022/01/13 12:28:26;;;;;;;;;;;3.10;99.90;;;;;;5047034;28;19952;-78
2022/01/13 12:30:52;;;;;;;;;;;3.10;99.90;;;;;;5047009;28;19913;-75
2022/01/13 12:33:30;;;;;;;;;;;3.10;99.90;;;;;;5046980;28;19952;-75
2022/01/13 12:35:56;;;;;;;;;;;3.10;99.90;;;;;;5029065;28;19916;-75
2022/01/13 12:38:22;;;;;;;;;;;3.10;99.90;;;;;;5047034;28;19916;-75
2022/01/13 12:40:51;;;;;;;;;;;3.20;99.90;;;;;;5046883;28;19909;-75
2022/01/13 12:43:33;;;;;;;;;;;3.20;99.90;;;;;;5046559;28;20411;-75
2022/01/13 12:46:00;;;;;;;;;;;3.00;99.90;;;;;;5046906;28;19916;-75
2022/01/13 12:48:28;;;;;;;;;;;2.90;99.90;;;;;;5046723;28;19920;-75
2022/01/13 12:50:53;;;;;;;;;;;3.00;99.90;;;;;;5046864;28;19916;-75
2022/01/13 12:53:20;;;;;;;;;;;3.10;99.90;;;;;;5046745;28;19909;-75
2022/01/13 12:56:06;;;;;;;;;;;3.10;99.90;;;;;;5046601;28;19936;-75
2022/01/13 12:58:36;;;;;;;;;;;3.10;99.90;;;;;;5046131;28;19919;-75
2022/01/13 13:01:13;;;;;;;;;;;3.00;99.90;;;;;;5044898;28;19909;-75
2022/01/13 13:03:39;;;;;;;;;;;3.10;99.90;;;;;;5046318;28;19909;-75
2022/01/13 13:06:08;;;;;;;;;;;3.10;99.90;;;;;;5046400;28;19971;-75
2022/01/13 13:08:34;;;;;;;;;;;3.10;99.90;;;;;;5046500;28;19988;-75
2022/01/13 13:11:01;;;;;;;;;;;3.20;99.90;;;;;;5046117;28;19916;-75
2022/01/13 13:13:31;;;;;;;;;;;3.20;99.90;;;;;;5061380;28;19939;-75
2022/01/13 13:15:58;;;;;;;;;;;3.20;99.90;;;;;;5046352;28;19970;-75
2022/01/13 13:18:25;;;;;;;;;;;3.20;99.90;;;;;;5028237;28;20012;-75
2022/01/13 13:20:51;;;;;;;;;;;3.20;99.90;;;;;;5028323;28;19909;-75
2022/01/13 13:23:20;;;;;;;;;;;3.20;99.90;;;;;;5044734;28;19948;-75
2022/01/13 13:25:47;;;;;;;;;;;3.10;99.90;;;;;;5045876;28;19924;-75
2022/01/13 13:28:19;;;;;;;;;;;3.20;99.90;;;;;;5045305;28;19938;-75
2022/01/13 13:30:48;;;;;;;;;;;3.20;99.90;;;;;;5046096;28;19924;-75
2022/01/13 13:33:14;;;;;;;;;;;3.30;99.90;;;;;;5045923;28;19917;-75
2022/01/13 13:35:39;;;;;;;;;;;3.20;99.90;;;;;;5046019;28;19955;-75
2022/01/13 13:38:10;;;;;;;;;;;3.20;99.90;;;;;;5000649;28;19983;-75
2022/01/13 13:40:41;;;;;;;;;;;3.30;99.90;;;;;;5019045;28;19935;-75
2022/01/13 13:43:06;;;;;;;;;;;3.30;99.90;;;;;;5040349;28;19909;-81
2022/01/13 13:45:32;;;;;;;;;;;3.30;99.90;;;;;;5045749;28;19915;-77
2022/01/13 13:47:59;;;;;;;;;;;3.30;99.90;;;;;;5045724;28;19908;-76
2022/01/13 13:50:25;;;;;;;;;;;3.40;99.90;;;;;;5045762;28;19916;-77
2022/01/13 13:53:07;;;;;;;;;;;3.40;99.90;;;;;;5045871;28;19932;-76
2022/01/13 13:55:33;;;;;;;;;;;3.40;99.90;;;;;;5045437;28;19909;-79
2022/01/13 13:57:59;;;;;;;;;;;3.40;99.90;;;;;;5045803;28;19917;-78
2022/01/13 14:00:27;;;;;;;;;;;3.30;99.90;;;;;;5027848;28;20341;-79
2022/01/13 14:02:54;;;;;;;;;;;3.30;99.90;;;;;;5027536;28;20001;-79
2022/01/13 14:05:24;;;;;;;;;;;3.40;99.90;;;;;;5011347;28;19909;-76
2022/01/13 14:07:49;;;;;;;;;;;3.30;99.90;;;;;;5045580;28;19932;-76
2022/01/13 14:10:18;;;;;;;;;;;3.30;99.90;;;;;;5027792;28;19928;-76
2022/01/13 14:12:50;;;;;;;;;;;3.10;99.90;;;;;;5011330;28;20463;-76
2022/01/13 14:15:29;;;;;;;;;;;3.20;99.90;;;;;;5028016;28;20276;-77
2022/01/13 14:17:56;;;;;;;;;;;3.30;99.90;;;;;;5027522;28;20385;-77
2022/01/13 14:20:23;;;;;;;;;;;3.30;99.90;;;;;;5027806;28;19920;-76
2022/01/13 14:22:54;;;;;;;;;;;3.20;99.90;;;;;;5045343;28;20324;-79
2022/01/13 14:25:20;;;;;;;;;;;3.20;99.90;;;;;;5044915;28;20011;-76
2022/01/13 14:27:53;;;;;;;;;;;3.10;99.90;;;;;;5045257;28;19916;-79
2022/01/13 14:30:30;;;;;;;;;;;3.10;99.90;;;;;;5045177;28;19909;-77
2022/01/13 14:33:12;;;;;;;;;;;3.10;99.90;;;;;;5045057;28;19940;-78
2022/01/13 14:35:37;;;;;;;;;;;3.10;99.90;;;;;;5045250;28;19913;-80
2022/01/13 14:38:08;;;;;;;;;;;3.20;99.90;;;;;;5045603;28;20362;-77
2022/01/13 14:40:41;;;;;;;;;;;3.20;99.90;;;;;;5051693;28;19920;-79
2022/01/13 14:43:07;;;;;;;;;;;3.10;99.90;;;;;;5052307;28;19913;-80
2022/01/13 14:45:33;;;;;;;;;;;3.10;99.90;;;;;;5051795;28;19916;-78
2022/01/13 14:47:58;;;;;;;;;;;3.00;99.90;;;;;;5051851;28;19912;-77
2022/01/13 14:50:24;;;;;;;;;;;3.10;99.90;;;;;;5051660;28;19934;-78
2022/01/13 14:52:50;;;;;;;;;;;3.00;99.90;;;;;;5051711;28;20317;-80
2022/01/13 14:55:17;;;;;;;;;;;3.10;99.90;;;;;;5051482;28;20008;-78